sensor_id;sensor_type;location;lat;lon;timestamp;pressure;altitude;pressure_sealevel;temperature;humidity
44144;BME280;43510;51.920;4.492;2022-09-24T00:01:44;67681.78;;;16.48;100.00
44144;BME280;43510;51.920;4.492;2022-09-24T00:04:11;67691.16;;;16.54;100.00
44144;BME280;43510;51.920;4.492;2022-09-24T00:06:45;67698.22;;;16.65;100.00
44144;BME280;43510;51.920;4.492;2022-09-24T00:09:13;67700.16;;;16.62;100.00
44144;BME280;43510;51.920;4.492;2022-09-24T00:11:39;67704.22;;;16.68;100.00
44144;BME280;43510;51.920;4.492;2022-09-24T00:14:06;67700.88;;;16.65;100.00
44144;BME280;43510;51.920;4.492;2022-09-24T00:16:32;67702.00;;;16.66;100.00
44144;BME280;43510;51.920;4.492;2022-09-24T00:19:00;67706.34;;;16.68;100.00
44144;BME280;43510;51.920;4.492;2022-09-24T00:21:33;67716.97;;;16.78;100.00
44144;BME280;43510;51.920;4.492;2022-09-24T00:24:01;67711.53;;;16.75;100.00
44144;BME280;43510;51.920;4.492;2022-09-24T00:26:27;67712.50;;;16.73;100.00
44144;BME280;43510;51.920;4.492;2022-09-24T00:29:14;67714.91;;;16.78;100.00
44144;BME280;43510;51.920;4.492;2022-09-24T00:31:40;67706.66;;;16.73;100.00
44144;BME280;43510;51.920;4.492;2022-09-24T00:34:05;67711.38;;;16.72;100.00
44144;BME280;43510;51.920;4.492;2022-09-24T00:36:31;67708.56;;;16.70;100.00
44144;BME280;43510;51.920;4.492;2022-09-24T00:38:57;67708.16;;;16.72;100.00
44144;BME280;43510;51.920;4.492;2022-09-24T00:41:29;67714.72;;;16.76;100.00
44144;BME280;43510;51.920;4.492;2022-09-24T00:43:55;67706.78;;;16.76;100.00
44144;BME280;43510;51.920;4.492;2022-09-24T00:49:09;67718.50;;;16.77;100.00
44144;BME280;43510;51.920;4.492;2022-09-24T00:51:36;67708.72;;;16.72;100.00
44144;BME280;43510;51.920;4.492;2022-09-24T00:54:08;67710.97;;;16.74;100.00
44144;BME280;43510;51.920;4.492;2022-09-24T00:56:37;67714.41;;;16.70;100.00
44144;BME280;43510;51.920;4.492;2022-09-24T00:59:07;67704.22;;;16.68;100.00
44144;BME280;43510;51.920;4.492;2022-09-24T01:01:35;67707.59;;;16.71;100.00
44144;BME280;43510;51.920;4.492;2022-09-24T01:04:01;67710.41;;;16.74;100.00
44144;BME280;43510;51.920;4.492;2022-09-24T01:06:31;67712.09;;;16.76;100.00
44144;BME280;43510;51.920;4.492;2022-09-24T01:08:58;67714.72;;;16.76;100.00
44144;BME280;43510;51.920;4.492;2022-09-24T01:11:50;67726.09;;;16.88;100.00
44144;BME280;43510;51.920;4.492;2022-09-24T01:23:14;67691.56;;;16.52;100.00
44144;BME280;43510;51.920;4.492;2022-09-24T01:32:29;67668.19;;;16.33;100.00
44144;BME280;43510;51.920;4.492;2022-09-24T01:35:02;67645.91;;;16.16;100.00
44144;BME280;43510;51.920;4.492;2022-09-24T01:37:32;67649.53;;;16.14;100.00
44144;BME280;43510;51.920;4.492;2022-09-24T01:40:00;67640.88;;;16.11;100.00
44144;BME280;43510;51.920;4.492;2022-09-24T01:42:28;67637.53;;;16.08;100.00
44144;BME280;43510;51.920;4.492;2022-09-24T01:44:55;67642.56;;;16.13;100.00
44144;BME280;43510;51.920;4.492;2022-09-24T01:47:30;67642.00;;;16.12;100.00
44144;BME280;43510;51.920;4.492;2022-09-24T01:49:58;67636.25;;;16.05;100.00
44144;BME280;43510;51.920;4.492;2022-09-24T01:52:33;67645.34;;;16.15;100.00
44144;BME280;43510;51.920;4.492;2022-09-24T01:55:02;67644.25;;;16.14;100.00
44144;BME280;43510;51.920;4.492;2022-09-24T01:57:34;67644.09;;;16.12;100.00
44144;BME280;43510;51.920;4.492;2022-09-24T02:00:10;67659.94;;;16.28;100.00
44144;BME280;43510;51.920;4.492;2022-09-24T02:03:07;67661.63;;;16.30;100.00
44144;BME280;43510;51.920;4.492;2022-09-24T02:05:43;67649.13;;;16.16;100.00
44144;BME280;43510;51.920;4.492;2022-09-24T02:08:17;67640.88;;;16.11;100.00
44144;BME280;43510;51.920;4.492;2022-09-24T02:10:50;67648.00;;;16.15;100.00
44144;BME280;43510;51.920;4.492;2022-09-24T02:13:21;67644.25;;;16.14;100.00
44144;BME280;43510;51.920;4.492;2022-09-24T02:15:51;67644.97;;;16.17;100.00
44144;BME280;43510;51.920;4.492;2022-09-24T02:18:20;67649.28;;;16.19;100.00
44144;BME280;43510;51.920;4.492;2022-09-24T02:20:49;67642.16;;;16.15;100.00
44144;BME280;43510;51.920;4.492;2022-09-24T02:23:16;67644.78;;;16.15;100.00
44144;BME280;43510;51.920;4.492;2022-09-24T02:25:58;67654.91;;;16.24;100.00
44144;BME280;43510;51.920;4.492;2022-09-24T02:28:26;67652.09;;;16.21;100.00
44144;BME280;43510;51.920;4.492;2022-09-24T02:31:04;67656.03;;;16.25;100.00
44144;BME280;43510;51.920;4.492;2022-09-24T02:33:32;67645.91;;;16.16;100.00
44144;BME280;43510;51.920;4.492;2022-09-24T02:36:25;67644.78;;;16.15;100.00
44144;BME280;43510;51.920;4.492;2022-09-24T02:38:52;67653.06;;;16.20;100.00
44144;BME280;43510;51.920;4.492;2022-09-24T02:41:18;67648.72;;;16.18;100.00
44144;BME280;43510;51.920;4.492;2022-09-24T02:43:47;67653.63;;;16.20;100.00
44144;BME280;43510;51.920;4.492;2022-09-24T02:46:13;67658.25;;;16.27;100.00
44144;BME280;43510;51.920;4.492;2022-09-24T02:48:39;67666.19;;;16.27;100.00
44144;BME280;43510;51.920;4.492;2022-09-24T02:51:05;67656.03;;;16.25;100.00
44144;BME280;43510;51.920;4.492;2022-09-24T02:53:31;67663.00;;;16.26;100.00
44144;BME280;43510;51.920;4.492;2022-09-24T02:55:57;67661.44;;;16.27;100.00
44144;BME280;43510;51.920;4.492;2022-09-24T02:58:25;67666.50;;;16.32;100.00
44144;BME280;43510;51.920;4.492;2022-09-24T03:00:51;67668.34;;;16.36;100.00
44144;BME280;43510;51.920;4.492;2022-09-24T03:03:17;67671.13;;;16.39;100.00
44144;BME280;43510;51.920;4.492;2022-09-24T03:05:43;67671.69;;;16.39;100.00
44144;BME280;43510;51.920;4.492;2022-09-24T03:08:09;67676.59;;;16.41;100.00
44144;BME280;43510;51.920;4.492;2022-09-24T03:10:36;67666.81;;;16.37;100.00
44144;BME280;43510;51.920;4.492;2022-09-24T03:13:01;67665.53;;;16.33;100.00
44144;BME280;43510;51.920;4.492;2022-09-24T03:15:27;67671.69;;;16.39;100.00
44144;BME280;43510;51.920;4.492;2022-09-24T03:17:53;67672.81;;;16.40;100.00
44144;BME280;43510;51.920;4.492;2022-09-24T03:20:19;67670.59;;;16.38;100.00
44144;BME280;43510;51.920;4.492;2022-09-24T03:22:49;67678.97;;;16.46;100.00
44144;BME280;43510;51.920;4.492;2022-09-24T03:25:17;67678.84;;;16.43;100.00
44144;BME280;43510;51.920;4.492;2022-09-24T03:27:43;67679.97;;;16.44;100.00
44144;BME280;43510;51.920;4.492;2022-09-24T03:30:09;67678.41;;;16.45;100.00
44144;BME280;43510;51.920;4.492;2022-09-24T03:32:53;67676.19;;;16.43;100.00
44144;BME280;43510;51.920;4.492;2022-09-24T03:35:19;67681.63;;;16.46;100.00
44144;BME280;43510;51.920;4.492;2022-09-24T03:37:45;67691.56;;;16.52;100.00
44144;BME280;43510;51.920;4.492;2022-09-24T03:40:11;67693.41;;;16.56;100.00
44144;BME280;43510;51.920;4.492;2022-09-24T03:42:36;67697.91;;;16.60;100.00
44144;BME280;43510;51.920;4.492;2022-09-24T03:45:02;67701.69;;;16.61;100.00
44144;BME280;43510;51.920;4.492;2022-09-24T03:47:28;67692.44;;;16.58;100.00
44144;BME280;43510;51.920;4.492;2022-09-24T03:49:56;67697.16;;;16.57;100.00
44144;BME280;43510;51.920;4.492;2022-09-24T03:52:22;67686.84;;;16.53;100.00
44144;BME280;43510;51.920;4.492;2022-09-24T03:54:48;67692.84;;;16.56;100.00
44144;BME280;43510;51.920;4.492;2022-09-24T03:57:14;67692.44;;;16.58;100.00
44144;BME280;43510;51.920;4.492;2022-09-24T03:59:40;67699.03;;;16.61;100.00
44144;BME280;43510;51.920;4.492;2022-09-24T04:02:06;67704.66;;;16.66;100.00
44144;BME280;43510;51.920;4.492;2022-09-24T04:04:32;67702.00;;;16.66;100.00
44144;BME280;43510;51.920;4.492;2022-09-24T04:06:57;67712.91;;;16.71;100.00
44144;BME280;43510;51.920;4.492;2022-09-24T04:09:23;67706.16;;;16.65;100.00
44144;BME280;43510;51.920;4.492;2022-09-24T04:11:49;67706.34;;;16.68;100.00
44144;BME280;43510;51.920;4.492;2022-09-24T04:14:16;67702.56;;;16.67;100.00
44144;BME280;43510;51.920;4.492;2022-09-24T04:16:42;67704.78;;;16.69;100.00
44144;BME280;43510;51.920;4.492;2022-09-24T04:19:07;67703.69;;;16.68;100.00
44144;BME280;43510;51.920;4.492;2022-09-24T04:21:32;67706.47;;;16.70;100.00
44144;BME280;43510;51.920;4.492;2022-09-24T04:23:58;67710.41;;;16.74;100.00
44144;BME280;43510;51.920;4.492;2022-09-24T04:26:23;67708.72;;;16.72;100.00
44144;BME280;43510;51.920;4.492;2022-09-24T04:28:49;67704.97;;;16.71;100.00
44144;BME280;43510;51.920;4.492;2022-09-24T04:31:15;67706.66;;;16.73;100.00
44144;BME280;43510;51.920;4.492;2022-09-24T04:33:40;67702.00;;;16.66;100.00
44144;BME280;43510;51.920;4.492;2022-09-24T04:36:07;67707.59;;;16.71;100.00
44144;BME280;43510;51.920;4.492;2022-09-24T04:38:32;67704.41;;;16.71;100.00
44144;BME280;43510;51.920;4.492;2022-09-24T04:41:08;67719.78;;;16.80;100.00
44144;BME280;43510;51.920;4.492;2022-09-24T04:43:34;67716.25;;;16.74;100.00
44144;BME280;43510;51.920;4.492;2022-09-24T04:46:01;67718.81;;;16.82;100.00
44144;BME280;43510;51.920;4.492;2022-09-24T04:48:27;67730.44;;;16.90;100.00
44144;BME280;43510;51.920;4.492;2022-09-24T04:50:54;67727.22;;;16.89;100.00
44144;BME280;43510;51.920;4.492;2022-09-24T04:53:19;67724.41;;;16.87;100.00
44144;BME280;43510;51.920;4.492;2022-09-24T04:55:44;67729.88;;;16.89;100.00
44144;BME280;43510;51.920;4.492;2022-09-24T04:58:10;67721.94;;;16.89;100.00
44144;BME280;43510;51.920;4.492;2022-09-24T05:00:35;67729.47;;;16.91;100.00
44144;BME280;43510;51.920;4.492;2022-09-24T05:03:01;67730.03;;;16.92;100.00
44144;BME280;43510;51.920;4.492;2022-09-24T05:05:31;67730.03;;;16.92;100.00
44144;BME280;43510;51.920;4.492;2022-09-24T05:07:57;67732.69;;;16.92;100.00
44144;BME280;43510;51.920;4.492;2022-09-24T05:10:24;67732.28;;;16.94;100.00
44144;BME280;43510;51.920;4.492;2022-09-24T05:12:50;67733.41;;;16.95;100.00
44144;BME280;43510;51.920;4.492;2022-09-24T05:15:15;67729.47;;;16.91;100.00
44144;BME280;43510;51.920;4.492;2022-09-24T05:17:43;67725.97;;;16.86;100.00
44144;BME280;43510;51.920;4.492;2022-09-24T05:20:09;67715.84;;;16.77;100.00
44144;BME280;43510;51.920;4.492;2022-09-24T05:22:40;67706.47;;;16.70;100.00
44144;BME280;43510;51.920;4.492;2022-09-24T05:25:05;67694.16;;;16.59;100.00
44144;BME280;43510;51.920;4.492;2022-09-24T05:27:31;67688.91;;;16.52;100.00
44144;BME280;43510;51.920;4.492;2022-09-24T05:29:56;67679.53;;;16.46;100.00
44144;BME280;43510;51.920;4.492;2022-09-24T05:32:21;67673.94;;;16.41;100.00
44144;BME280;43510;51.920;4.492;2022-09-24T05:34:47;67671.13;;;16.39;100.00
44144;BME280;43510;51.920;4.492;2022-09-24T05:37:13;67671.38;;;16.34;100.00
44144;BME280;43510;51.920;4.492;2022-09-24T05:39:39;67657.53;;;16.24;100.00
44144;BME280;43510;51.920;4.492;2022-09-24T05:42:04;67662.19;;;16.30;100.00
44144;BME280;43510;51.920;4.492;2022-09-24T05:44:31;67649.84;;;16.19;100.00
44144;BME280;43510;51.920;4.492;2022-09-24T05:46:56;67650.41;;;16.20;100.00
44144;BME280;43510;51.920;4.492;2022-09-24T05:49:22;67661.88;;;16.25;100.00
44144;BME280;43510;51.920;4.492;2022-09-24T05:51:48;67651.53;;;16.21;100.00
44144;BME280;43510;51.920;4.492;2022-09-24T05:54:14;67656.03;;;16.25;100.00
44144;BME280;43510;51.920;4.492;2022-09-24T05:56:40;67669.16;;;16.32;100.00
44144;BME280;43510;51.920;4.492;2022-09-24T05:59:05;67664.97;;;16.33;100.00
44144;BME280;43510;51.920;4.492;2022-09-24T06:01:31;67671.69;;;16.39;100.00
44144;BME280;43510;51.920;4.492;2022-09-24T06:03:57;67673.00;;;16.43;100.00
44144;BME280;43510;51.920;4.492;2022-09-24T06:06:24;67683.31;;;16.47;100.00
44144;BME280;43510;51.920;4.492;2022-09-24T06:08:50;67690.22;;;16.56;100.00
44144;BME280;43510;51.920;4.492;2022-09-24T06:11:16;67694.72;;;16.60;100.00
44144;BME280;43510;51.920;4.492;2022-09-24T06:13:42;67704.22;;;16.68;100.00
44144;BME280;43510;51.920;4.492;2022-09-24T06:16:09;67715.16;;;16.73;100.00
44144;BME280;43510;51.920;4.492;2022-09-24T06:18:37;67716.03;;;16.79;100.00
44144;BME280;43510;51.920;4.492;2022-09-24T06:21:06;67719.94;;;16.83;100.00
44144;BME280;43510;51.920;4.492;2022-09-24T06:23:36;67728.19;;;16.88;100.00
44144;BME280;43510;51.920;4.492;2022-09-24T06:26:04;67730.03;;;16.92;100.00
44144;BME280;43510;51.920;4.492;2022-09-24T06:28:29;67735.47;;;16.94;100.00
44144;BME280;43510;51.920;4.492;2022-09-24T06:30:58;67734.53;;;16.96;100.00
44144;BME280;43510;51.920;4.492;2022-09-24T06:33:24;67742.38;;;17.03;100.00
44144;BME280;43510;51.920;4.492;2022-09-24T06:35:49;67741.25;;;17.02;100.00
44144;BME280;43510;51.920;4.492;2022-09-24T06:38:16;67752.16;;;17.07;100.00
44144;BME280;43510;51.920;4.492;2022-09-24T06:40:43;67750.22;;;17.10;100.00
44144;BME280;43510;51.920;4.492;2022-09-24T06:43:15;67749.25;;;17.11;100.00
44144;BME280;43510;51.920;4.492;2022-09-24T06:45:43;67751.19;;;17.08;100.00
44144;BME280;43510;51.920;4.492;2022-09-24T06:48:13;67750.94;;;17.13;100.00
44144;BME280;43510;51.920;4.492;2022-09-24T06:50:43;67756.22;;;17.13;100.00
44144;BME280;43510;51.920;4.492;2022-09-24T06:53:11;67758.47;;;17.15;100.00
44144;BME280;43510;51.920;4.492;2022-09-24T06:55:37;67754.16;;;17.13;100.00
44144;BME280;43510;51.920;4.492;2022-09-24T06:58:08;67758.63;;;17.18;100.00
44144;BME280;43510;51.920;4.492;2022-09-24T07:00:35;67758.63;;;17.18;100.00
44144;BME280;43510;51.920;4.492;2022-09-24T07:03:03;67768.72;;;17.27;100.00
44144;BME280;43510;51.920;4.492;2022-09-24T07:05:29;67765.91;;;17.24;100.00
44144;BME280;43510;51.920;4.492;2022-09-24T07:07:54;67771.53;;;17.29;100.00
44144;BME280;43510;51.920;4.492;2022-09-24T07:10:20;67766.66;;;17.27;100.00
44144;BME280;43510;51.920;4.492;2022-09-24T07:12:45;67765.91;;;17.24;100.00
44144;BME280;43510;51.920;4.492;2022-09-24T07:15:11;67769.84;;;17.28;100.00
44144;BME280;43510;51.920;4.492;2022-09-24T07:17:36;67773.78;;;17.31;100.00
44144;BME280;43510;51.920;4.492;2022-09-24T07:20:05;67773.22;;;17.31;100.00
44144;BME280;43510;51.920;4.492;2022-09-24T07:22:31;67765.91;;;17.24;100.00
44144;BME280;43510;51.920;4.492;2022-09-24T07:24:56;67767.44;;;17.23;100.00
44144;BME280;43510;51.920;4.492;2022-09-24T07:27:21;67757.66;;;17.19;100.00
44144;BME280;43510;51.920;4.492;2022-09-24T07:29:48;67761.44;;;17.20;100.00
44144;BME280;43510;51.920;4.492;2022-09-24T07:32:17;67764.09;;;17.20;100.00
44144;BME280;43510;51.920;4.492;2022-09-24T07:34:42;67755.41;;;17.17;100.00
44144;BME280;43510;51.920;4.492;2022-09-24T07:37:07;67748.13;;;17.10;100.00
44144;BME280;43510;51.920;4.492;2022-09-24T07:39:33;67742.22;;;17.00;100.00
44144;BME280;43510;51.920;4.492;2022-09-24T07:41:59;67726.50;;;16.86;100.00
44144;BME280;43510;51.920;4.492;2022-09-24T07:44:26;67707.44;;;16.69;100.00
44144;BME280;43510;51.920;4.492;2022-09-24T07:46:51;67691.31;;;16.57;100.00
44144;BME280;43510;51.920;4.492;2022-09-24T07:49:17;67672.69;;;16.38;100.00
44144;BME280;43510;51.920;4.492;2022-09-24T07:51:43;67661.63;;;16.30;100.00
44144;BME280;43510;51.920;4.492;2022-09-24T07:54:09;67648.88;;;16.21;100.00
44144;BME280;43510;51.920;4.492;2022-09-24T07:56:35;67646.47;;;16.16;100.00
44144;BME280;43510;51.920;4.492;2022-09-24T07:59:00;67649.69;;;16.17;100.00
44144;BME280;43510;51.920;4.492;2022-09-24T08:01:26;67651.53;;;16.21;100.00
44144;BME280;43510;51.920;4.492;2022-09-24T08:03:52;67643.69;;;16.14;100.00
44144;BME280;43510;51.920;4.492;2022-09-24T08:06:18;67640.88;;;16.11;100.00
44144;BME280;43510;51.920;4.492;2022-09-24T08:08:48;67640.31;;;16.11;100.00
44144;BME280;43510;51.920;4.492;2022-09-24T08:11:14;67633.59;;;16.05;100.00
44144;BME280;43510;51.920;4.492;2022-09-24T08:13:41;67637.38;;;16.06;100.00
44144;BME280;43510;51.920;4.492;2022-09-24T08:16:07;67643.13;;;16.13;100.00
44144;BME280;43510;51.920;4.492;2022-09-24T08:18:33;67647.59;;;16.17;100.00
44144;BME280;43510;51.920;4.492;2022-09-24T08:21:03;67662.19;;;16.30;100.00
44144;BME280;43510;51.920;4.492;2022-09-24T08:23:30;67672.25;;;16.40;100.00
44144;BME280;43510;51.920;4.492;2022-09-24T08:25:56;67683.63;;;16.52;100.00
44144;BME280;43510;51.920;4.492;2022-09-24T08:28:21;67695.41;;;16.63;100.00
44144;BME280;43510;51.920;4.492;2022-09-24T08:30:47;67714.34;;;16.78;100.00
44144;BME280;43510;51.920;4.492;2022-09-24T08:33:13;67733.22;;;16.92;100.00
44144;BME280;43510;51.920;4.492;2022-09-24T08:35:40;67740.69;;;17.01;100.00
44144;BME280;43510;51.920;4.492;2022-09-24T08:38:06;67745.91;;;17.08;100.00
44144;BME280;43510;51.920;4.492;2022-09-24T08:40:38;67760.00;;;17.14;100.00
44144;BME280;43510;51.920;4.492;2022-09-24T08:43:28;67762.00;;;17.21;100.00
44144;BME280;43510;51.920;4.492;2022-09-24T08:46:07;67764.78;;;17.23;100.00
44144;BME280;43510;51.920;4.492;2022-09-24T08:48:55;67771.53;;;17.29;100.00
44144;BME280;43510;51.920;4.492;2022-09-24T08:51:21;67782.59;;;17.37;100.00
44144;BME280;43510;51.920;4.492;2022-09-24T08:56:24;67795.09;;;17.50;100.00
44144;BME280;43510;51.920;4.492;2022-09-24T08:58:59;67819.50;;;17.68;100.00
44144;BME280;43510;51.920;4.492;2022-09-24T09:04:23;67832.69;;;17.84;100.00
44144;BME280;43510;51.920;4.492;2022-09-24T09:06:53;67834.78;;;17.84;100.00
44144;BME280;43510;51.920;4.492;2022-09-24T09:12:13;67842.97;;;17.96;100.00
44144;BME280;43510;51.920;4.492;2022-09-24T09:17:39;67857.69;;;18.12;100.00
44144;BME280;43510;51.920;4.492;2022-09-24T09:20:12;67856.81;;;18.06;100.00
44144;BME280;43510;51.920;4.492;2022-09-24T09:22:44;67850.50;;;17.98;100.00
44144;BME280;43510;51.920;4.492;2022-09-24T09:25:16;67875.38;;;18.23;100.00
44144;BME280;43510;51.920;4.492;2022-09-24T09:27:42;67846.72;;;17.97;100.00
44144;BME280;43510;51.920;4.492;2022-09-24T09:30:12;67846.00;;;17.94;100.00
44144;BME280;43510;51.920;4.492;2022-09-24T09:32:58;67872.56;;;18.20;100.00
44144;BME280;43510;51.920;4.492;2022-09-24T09:40:40;67846.72;;;17.97;100.00
44144;BME280;43510;51.920;4.492;2022-09-24T09:43:12;67844.47;;;17.95;100.00
44144;BME280;43510;51.920;4.492;2022-09-24T09:48:20;67835.66;;;17.89;100.00
44144;BME280;43510;51.920;4.492;2022-09-24T09:50:48;67832.88;;;17.87;100.00
44144;BME280;43510;51.920;4.492;2022-09-24T09:53:28;67840.81;;;17.87;100.00
44144;BME280;43510;51.920;4.492;2022-09-24T09:56:00;67831.56;;;17.83;100.00
44144;BME280;43510;51.920;4.492;2022-09-24T09:58:28;67827.09;;;17.79;100.00
44144;BME280;43510;51.920;4.492;2022-09-24T10:01:12;67842.66;;;17.91;100.00
44144;BME280;43510;51.920;4.492;2022-09-24T10:06:13;67838.88;;;17.90;99.40
44144;BME280;43510;51.920;4.492;2022-09-24T10:08:39;67840.41;;;17.89;98.07
44144;BME280;43510;51.920;4.492;2022-09-24T10:11:05;67835.09;;;17.89;97.22
44144;BME280;43510;51.920;4.492;2022-09-24T10:13:32;67826.53;;;17.79;97.12
44144;BME280;43510;51.920;4.492;2022-09-24T10:16:01;67832.13;;;17.84;97.15
44144;BME280;43510;51.920;4.492;2022-09-24T10:18:35;67838.88;;;17.90;97.14
44144;BME280;43510;51.920;4.492;2022-09-24T10:21:08;67843.34;;;17.94;96.97
44144;BME280;43510;51.920;4.492;2022-09-24T10:23:44;67852.91;;;18.03;96.12
44144;BME280;43510;51.920;4.492;2022-09-24T10:26:13;67862.47;;;18.11;95.07
44144;BME280;43510;51.920;4.492;2022-09-24T10:28:47;67856.81;;;18.06;95.19
44144;BME280;43510;51.920;4.492;2022-09-24T10:31:34;67853.22;;;18.08;94.72
44144;BME280;43510;51.920;4.492;2022-09-24T10:34:01;67857.94;;;18.07;93.97
44144;BME280;43510;51.920;4.492;2022-09-24T10:36:30;67857.94;;;18.07;93.30
44144;BME280;43510;51.920;4.492;2022-09-24T10:39:13;67866.53;;;18.17;92.80
44144;BME280;43510;51.920;4.492;2022-09-24T10:41:50;67876.34;;;18.21;92.41
44144;BME280;43510;51.920;4.492;2022-09-24T10:44:17;67871.03;;;18.21;92.05
44144;BME280;43510;51.920;4.492;2022-09-24T10:50:39;67867.91;;;18.14;92.67
44144;BME280;43510;51.920;4.492;2022-09-24T10:52:46;67817.81;;;17.66;94.10
44144;BME280;43510;51.920;4.492;2022-09-24T10:55:28;67775.03;;;17.35;96.63
44144;BME280;43510;51.920;4.492;2022-09-24T10:58:02;67759.75;;;17.19;97.64
44144;BME280;43510;51.920;4.492;2022-09-24T11:03:41;67767.44;;;17.23;99.65
44144;BME280;43510;51.920;4.492;2022-09-24T11:09:30;67785.00;;;17.41;98.93
44144;BME280;43510;51.920;4.492;2022-09-24T11:20:18;67846.16;;;17.97;95.24
44144;BME280;43510;51.920;4.492;2022-09-24T11:25:46;67888.13;;;18.32;93.15
44144;BME280;43510;51.920;4.492;2022-09-24T11:42:32;67859.06;;;18.08;93.56
44144;BME280;43510;51.920;4.492;2022-09-24T11:53:57;67791.56;;;17.45;95.73
44144;BME280;43510;51.920;4.492;2022-09-24T11:56:32;67794.94;;;17.48;95.84
44144;BME280;43510;51.920;4.492;2022-09-24T11:59:23;67796.22;;;17.51;95.43
44144;BME280;43510;51.920;4.492;2022-09-24T12:02:05;67777.13;;;17.34;95.47
44144;BME280;43510;51.920;4.492;2022-09-24T12:04:48;67772.09;;;17.30;96.21
44144;BME280;43510;51.920;4.492;2022-09-24T12:07:48;67771.53;;;17.29;96.93
44144;BME280;43510;51.920;4.492;2022-09-24T12:10:38;67761.44;;;17.20;97.92
44144;BME280;43510;51.920;4.492;2022-09-24T12:13:12;67751.63;;;17.16;98.51
44144;BME280;43510;51.920;4.492;2022-09-24T12:15:57;67752.06;;;17.14;99.15
44144;BME280;43510;51.920;4.492;2022-09-24T12:18:34;67746.69;;;17.04;98.60
44144;BME280;43510;51.920;4.492;2022-09-24T12:21:10;67749.66;;;17.09;98.24
44144;BME280;43510;51.920;4.492;2022-09-24T12:23:39;67757.34;;;17.14;97.40
44144;BME280;43510;51.920;4.492;2022-09-24T12:26:07;67768.16;;;17.26;96.20
44144;BME280;43510;51.920;4.492;2022-09-24T12:28:46;67778.41;;;17.38;94.77
44144;BME280;43510;51.920;4.492;2022-09-24T12:32:05;67819.78;;;17.73;93.77
44144;BME280;43510;51.920;4.492;2022-09-24T12:46:01;67878.97;;;18.21;87.28
44144;BME280;43510;51.920;4.492;2022-09-24T12:48:30;67907.19;;;18.49;86.37
44144;BME280;43510;51.920;4.492;2022-09-24T12:51:00;67927.03;;;18.69;84.82
44144;BME280;43510;51.920;4.492;2022-09-24T12:53:37;67944.44;;;18.85;83.90
44144;BME280;43510;51.920;4.492;2022-09-24T12:56:06;67954.13;;;18.96;83.51
44144;BME280;43510;51.920;4.492;2022-09-24T12:58:40;67974.78;;;19.12;83.54
44144;BME280;43510;51.920;4.492;2022-09-24T13:03:41;67981.50;;;19.18;82.70
44144;BME280;43510;51.920;4.492;2022-09-24T13:06:29;67983.75;;;19.21;82.35
44144;BME280;43510;51.920;4.492;2022-09-24T13:08:55;67972.81;;;19.15;82.75
44144;BME280;43510;51.920;4.492;2022-09-24T13:11:28;67983.19;;;19.20;82.83
44144;BME280;43510;51.920;4.492;2022-09-24T13:14:03;67998.38;;;19.34;83.01
44144;BME280;43510;51.920;4.492;2022-09-24T13:16:30;68006.22;;;19.41;82.71
44144;BME280;43510;51.920;4.492;2022-09-24T13:19:00;68016.91;;;19.50;82.84
44144;BME280;43510;51.920;4.492;2022-09-24T13:21:28;68020.88;;;19.54;82.80
44144;BME280;43510;51.920;4.492;2022-09-24T13:23:54;68021.97;;;19.55;82.85
44144;BME280;43510;51.920;4.492;2022-09-24T13:28:55;68017.75;;;19.46;83.16
44144;BME280;43510;51.920;4.492;2022-09-24T13:36:48;68043.03;;;19.69;83.35
44144;BME280;43510;51.920;4.492;2022-09-24T13:39:34;68057.94;;;19.87;83.34
44144;BME280;43510;51.920;4.492;2022-09-24T13:42:31;68076.50;;;20.04;82.68
44144;BME280;43510;51.920;4.492;2022-09-24T13:45:00;68066.94;;;19.95;81.81
44144;BME280;43510;51.920;4.492;2022-09-24T13:47:35;68058.09;;;19.90;82.36
44144;BME280;43510;51.920;4.492;2022-09-24T13:52:52;68061.31;;;19.90;82.54
44144;BME280;43510;51.920;4.492;2022-09-24T13:57:47;68048.94;;;19.79;81.79
44144;BME280;43510;51.920;4.492;2022-09-24T14:00:17;68042.19;;;19.73;81.93
44144;BME280;43510;51.920;4.492;2022-09-24T14:05:20;68044.47;;;19.75;81.97
44144;BME280;43510;51.920;4.492;2022-09-24T14:08:25;68058.91;;;19.86;81.48
44144;BME280;43510;51.920;4.492;2022-09-24T14:11:03;68047.81;;;19.78;81.45
44144;BME280;43510;51.920;4.492;2022-09-24T14:13:28;68042.75;;;19.74;81.09
44144;BME280;43510;51.920;4.492;2022-09-24T14:15:56;68037.16;;;19.69;80.76
44144;BME280;43510;51.920;4.492;2022-09-24T14:18:26;68032.09;;;19.64;79.17
44144;BME280;43510;51.920;4.492;2022-09-24T14:21:05;68030.41;;;19.63;79.49
44144;BME280;43510;51.920;4.492;2022-09-24T14:26:03;68039.41;;;19.71;79.72
44144;BME280;43510;51.920;4.492;2022-09-24T14:28:30;68042.19;;;19.73;79.56
44144;BME280;43510;51.920;4.492;2022-09-24T14:30:57;68050.63;;;19.81;79.51
44144;BME280;43510;51.920;4.492;2022-09-24T14:33:29;68056.25;;;19.86;79.36
44144;BME280;43510;51.920;4.492;2022-09-24T14:35:57;68055.69;;;19.85;79.84
44144;BME280;43510;51.920;4.492;2022-09-24T14:38:31;68063.56;;;19.92;79.48
44144;BME280;43510;51.920;4.492;2022-09-24T14:46:34;68068.88;;;19.92;78.72
44144;BME280;43510;51.920;4.492;2022-09-24T14:49:19;68062.44;;;19.91;78.94
44144;BME280;43510;51.920;4.492;2022-09-24T14:52:04;68050.22;;;19.83;77.96
44144;BME280;43510;51.920;4.492;2022-09-24T14:54:32;68036.59;;;19.68;77.42
44144;BME280;43510;51.920;4.492;2022-09-24T14:59:36;68044.84;;;19.73;78.43
44144;BME280;43510;51.920;4.492;2022-09-24T15:02:21;68046.72;;;19.77;77.83
44144;BME280;43510;51.920;4.492;2022-09-24T15:04:52;68039.25;;;19.68;77.67
44144;BME280;43510;51.920;4.492;2022-09-24T15:07:24;68037.16;;;19.69;78.25
44144;BME280;43510;51.920;4.492;2022-09-24T15:09:51;68068.06;;;19.96;76.45
44144;BME280;43510;51.920;4.492;2022-09-24T15:12:20;68037.41;;;19.64;76.25